LIBDLIMF

Guest
Details From LIBD - Bari Palese Macchie
To LIMF - Torino Caselle
Flight Number -
Tags generated
Created
Modified
Stats Distance 471 nm / 872 km
Max Altitude 34,200 ft / 10,424 m
Waypoints 9
Social Downloads 2
Likes 0
Share VATSIM

Download

Looking for another format? Having issues loading an existing format? Contact us
Advertisement - Login to hide

Notes

Basic altitude profile: - Ascent Rate: 1800ft/min - Ascent Speed: 250kts - Cruise Altitude: 27000ft - Cruise Speed: 400kts - Descent Rate: 1800ft/min - Descent Speed: 250kts Options: - Use NATs: yes - Use PACOTS: yes - Use low airways: yes - Use high airways: yes

Route

LIBD AME M872 PES UL168 PREKI UZ904 VALEN UM730 FRZ UW706 KALIK LIMF

ID Type Via Altitude Latitude Longitude Leg Dist Tot Dist Heading (true) Name
O LIBD APT - 0 ft / 0 m 41.13787˚ 16.75832˚ - 0 nm - Bari Palese Macchie
AME NDB - 16,700 ft / 5,090 m 41.50000˚ 15.83778˚ 46 nm 46 nm 298° / 297° AMENDOLA NDB
PES VOR M872 (AWY-LO) 18,500 ft / 5,639 m 42.43611˚ 14.18444˚ 92 nm 139 nm 308° / 307° PESCARA VOR-DME
PREKI FIX UL168 (AWY-HI) 34,000 ft / 10,363 m 42.87750˚ 13.11917˚ 54 nm 193 nm 300° / 299° -
VERNA FIX UZ904 (AWY-HI) 34,000 ft / 10,363 m 43.74222˚ 11.83167˚ 76 nm 270 nm 313° / 312° -
VALEN FIX UZ904 (AWY-HI) 34,000 ft / 10,363 m 43.93722˚ 11.53306˚ 17 nm 287 nm 312° / 312° -
FRZ VOR UM730 (AWY-HI) 34,200 ft / 10,424 m 44.02718˚ 11.00331˚ 23 nm 311 nm 283° / 283° FIRENZE VORTAC
KALIK FIX UW706 (AWY-HI) 22,100 ft / 6,736 m 44.46833˚ 9.84806˚ 56 nm 367 nm 298° / 298° -
O LIMF APT - 0 ft / 0 m 45.20076˚ 7.64963˚ 103 nm 470 nm 296° / 294° Torino Caselle

Altitude Profile

Advertisement - Login to hide

Weather


0- 5 10 15 20 25 30 35+ Temperature / ° C

Clouds and Precipitation
Forecast for 2017-12-15 06:00 UTC. Updated 2 hours ago

Ground ~20,000 ft ~40,000 ft Winds

LIBD

Details ICAO LIBD (BRI)
Name Bari Palese Macchie
Region Italy
Timezone Europe/Rome (UTC+1.0)
Stats Elevation 177 ft / 54 m (AMSL)
Location 41.137865° 16.758318°
Runways 1
Magnetic Variation 3.737° E

METAR

LIBD 150450Z 21008KT 160V240 CAVOK 15/08 Q1009

Decode

TAF

TAF LIBD 142300Z 1500/1524 23014KT 9999 SCT030 TEMPO 1504/1512 RA= TAF LIBP 142300Z 1500/1524 22018KT 9999 SCT020 TEMPO 1500/1506 22020G30KT TEMPO 1514/1518 RA

Decode

Departure Runways

ID Width Length Bearing (true) Bearing (mag) Surface Threshold Offset Overrun Length
07 148 ft / 45 m 9,262 ft / 2,823 m 69.39° 65.65° Asphalt 1,257 ft / 383 m 0 ft / 0 m
25 148 ft / 45 m 9,262 ft / 2,823 m 249.42° 245.68° Asphalt 0 ft / 0 m 194 ft / 59 m

LIMF

Details ICAO LIMF (TRN)
Name Torino Caselle
Region Italy
Timezone Europe/Rome (UTC+1.0)
Stats Elevation 989 ft / 301 m (AMSL)
Location 45.200763° 7.649630°
Runways 1
Magnetic Variation 2.122° E

METAR

LIMF 150450Z VRB03KT 9999 SCT090 M00/M03 Q0998

Decode

TAF

TAF LIMF 142300Z 1500/1524 VRB05KT 9999 SCT090

Decode

Destination Runways

ID Width Length Bearing (true) Bearing (mag) Surface Threshold Offset Overrun Length
18 197 ft / 60 m 10,835 ft / 3,303 m 182.56° 180.44° Asphalt 2,378 ft / 725 m 970 ft / 296 m
36 197 ft / 60 m 10,835 ft / 3,303 m 2.56° 0.44° Asphalt 1,148 ft / 350 m 0 ft / 0 m

Approach Navaids

Runway Type Ident Frequency Range Bearing (true) Bearing (mag) Slope Elevation
36 Localiser ITOC 108.70 MHz 18 nm / 33 km 2.56° 0.44° - 989 ft / 301 m (AMSL)
36 Glidescope ITOC 108.70 MHz 10 nm / 19 km 2.56° 0.44° 3.00° 989 ft / 301 m (AMSL)
36 DME ITOC 108.70 MHz 25 nm / 46 km - - - 989 ft / 301 m (AMSL)

Popular Alternatives